CheckWX is a tool to help pilots better visualize weather data.  It is not intended as a substitute for an official pre-flight weather briefing.

09:53:41 UTC

ETSN METAR
Neuburg Airport
Germany
Current

34 mins ago

ETSN 210920Z 08008KT 9999 FEW320 09/M03 Q1034 BLU+BLU+
Observed
Mar-21 @ 09:20 UTC
Wind
  • 080° at 8 KTS
Visibility
10,000+ meters
Flight Rules
VFR
Cloud Levels
  • Few at 32,000' AGL
Temperature
C / 48°F
Dewpoint
-3°C / 27°F
Humidity
43%
Altimeter
30.53" Hg
Pressure
1033.91 hPa
Previous

2 hours ago

ETSN 210820Z 06005KT 9999 FEW320 06/M02 Q1034 BLU+BLU+
Observed
Mar-21 @ 08:20 UTC
Wind
  • 060° at 5 KTS
Visibility
10,000+ meters
Flight Rules
VFR
Cloud Levels
  • Few at 32,000' AGL
Temperature
C / 43°F
Dewpoint
-2°C / 28°F
Humidity
57%
Altimeter
30.53" Hg
Pressure
1033.91 hPa
Previous

3 hours ago

ETSN 210720Z 06004KT 9999 FEW300 03/M03 Q1034 BLU+BLU+
Observed
Mar-21 @ 07:20 UTC
Wind
  • 060° at 4 KTS
Visibility
10,000+ meters
Flight Rules
VFR
Cloud Levels
  • Few at 30,000' AGL
Temperature
C / 37°F
Dewpoint
-3°C / 27°F
Humidity
65%
Altimeter
30.53" Hg
Pressure
1033.91 hPa